createdAt,value
2022-08-01T00:00:05.012Z,23.43
2022-08-01T00:02:32.122Z,23.38
2022-08-01T00:04:59.023Z,23.26
2022-08-01T00:07:25.473Z,23.11
2022-08-01T00:09:52.017Z,23.28
2022-08-01T00:12:18.534Z,23.15
2022-08-01T00:14:44.977Z,23.12
2022-08-01T00:17:11.442Z,23.18
2022-08-01T00:19:37.897Z,23.17
2022-08-01T00:22:04.760Z,23.19
2022-08-01T00:24:31.340Z,23.28
2022-08-01T00:26:57.877Z,23.27
2022-08-01T00:29:49.951Z,23.37
2022-08-01T00:32:10.789Z,23.27
2022-08-01T00:34:37.304Z,23.18
2022-08-01T00:37:03.873Z,23.12
2022-08-01T00:39:30.329Z,23.17
2022-08-01T00:41:59.710Z,23.20
2022-08-01T00:44:28.486Z,23.10
2022-08-01T00:46:54.924Z,23.05
2022-08-01T00:49:21.551Z,22.86
2022-08-01T00:51:48.151Z,22.86
2022-08-01T00:54:16.780Z,22.93
2022-08-01T00:56:43.874Z,22.90
2022-08-01T00:59:10.609Z,22.73
2022-08-01T01:01:39.362Z,22.95
2022-08-01T01:04:08.621Z,22.89
2022-08-01T01:07:00.771Z,22.92
2022-08-01T01:09:37.378Z,22.90
2022-08-01T01:12:37.385Z,22.78
2022-08-01T01:15:13.339Z,22.82
2022-08-01T01:17:51.987Z,22.87
2022-08-01T01:20:19.832Z,22.80
2022-08-01T01:23:08.197Z,22.74
2022-08-01T01:25:37.759Z,22.53
2022-08-01T01:28:18.685Z,22.77
2022-08-01T01:30:47.820Z,22.75
2022-08-01T01:33:15.219Z,22.75
2022-08-01T01:35:48.604Z,22.69
2022-08-01T01:38:19.033Z,22.67
2022-08-01T01:40:46.816Z,22.55
2022-08-01T01:43:14.248Z,22.66
2022-08-01T01:45:41.319Z,22.63
2022-08-01T01:48:09.144Z,22.58
2022-08-01T01:50:36.974Z,22.60
2022-08-01T01:53:05.423Z,22.56
2022-08-01T01:55:32.478Z,22.56
2022-08-01T01:58:16.715Z,22.45
2022-08-01T02:00:44.109Z,22.51
2022-08-01T02:03:13.154Z,22.65
2022-08-01T02:05:40.408Z,22.51
2022-08-01T02:08:07.885Z,22.38
2022-08-01T02:10:35.410Z,22.45
2022-08-01T02:13:05.264Z,22.45
2022-08-01T02:15:34.102Z,22.46
2022-08-01T02:18:01.779Z,22.54
2022-08-01T02:20:31.033Z,22.44
2022-08-01T02:23:03.077Z,22.40
2022-08-01T02:25:35.035Z,22.41
2022-08-01T02:28:08.192Z,22.41
2022-08-01T02:30:37.534Z,22.66
2022-08-01T02:33:16.060Z,22.50
2022-08-01T02:36:30.781Z,22.55
2022-08-01T02:38:34.162Z,22.53
2022-08-01T02:41:05.550Z,22.49
2022-08-01T02:43:34.723Z,22.53
2022-08-01T02:46:02.734Z,22.29
2022-08-01T02:48:30.902Z,22.28
2022-08-01T02:50:59.531Z,22.51
2022-08-01T02:53:43.809Z,22.58
2022-08-01T02:56:11.645Z,22.64
2022-08-01T02:58:39.282Z,22.52
2022-08-01T03:01:07.300Z,22.20
2022-08-01T03:03:35.941Z,22.02
2022-08-01T03:06:03.916Z,22.41
2022-08-01T03:08:31.371Z,22.25
2022-08-01T03:10:59.346Z,22.27
2022-08-01T03:13:26.465Z,22.42
2022-08-01T03:15:53.405Z,22.49
2022-08-01T03:18:20.005Z,22.47
2022-08-01T03:20:46.850Z,22.41
2022-08-01T03:23:13.997Z,22.44
2022-08-01T03:25:41.973Z,22.44
2022-08-01T03:28:09.936Z,22.53
2022-08-01T03:30:38.076Z,22.47
2022-08-01T03:33:04.585Z,22.05
2022-08-01T03:35:38.926Z,22.27
2022-08-01T03:38:16.225Z,22.43
2022-08-01T03:40:54.592Z,22.42
2022-08-01T03:43:42.450Z,22.60
2022-08-01T03:46:11.567Z,22.48
2022-08-01T03:48:41.416Z,22.49
2022-08-01T03:51:08.487Z,22.30
2022-08-01T03:53:35.871Z,22.38
2022-08-01T03:56:09.544Z,22.54
2022-08-01T03:58:38.036Z,22.53
2022-08-01T04:01:05.149Z,22.53
2022-08-01T04:03:31.915Z,22.45
2022-08-01T04:05:58.542Z,22.51
2022-08-01T04:08:35.345Z,22.30
2022-08-01T04:11:02.155Z,22.46
2022-08-01T04:13:29.368Z,22.45
2022-08-01T04:16:04.345Z,22.41
2022-08-01T04:18:30.766Z,22.19
2022-08-01T04:20:57.201Z,22.14
2022-08-01T04:23:26.255Z,22.11
2022-08-01T04:25:53.357Z,22.19
2022-08-01T04:28:20.683Z,22.07
2022-08-01T04:30:48.573Z,21.89
2022-08-01T04:33:17.236Z,22.02
2022-08-01T04:36:02.019Z,22.01
2022-08-01T04:38:32.234Z,22.04
2022-08-01T04:40:59.082Z,21.94
2022-08-01T04:43:35.179Z,21.96
2022-08-01T04:46:04.755Z,21.89
2022-08-01T04:48:32.875Z,21.72
2022-08-01T04:50:59.329Z,21.81
2022-08-01T04:53:27.020Z,21.67
2022-08-01T04:55:53.649Z,21.77
2022-08-01T04:58:20.150Z,21.74
2022-08-01T05:00:47.836Z,21.78
2022-08-01T05:03:14.565Z,21.54
2022-08-01T05:05:41.209Z,21.71
2022-08-01T05:08:07.883Z,21.75
2022-08-01T05:10:34.804Z,21.92
2022-08-01T05:13:01.250Z,21.79
2022-08-01T05:15:28.073Z,21.89
2022-08-01T05:17:55.249Z,21.67
2022-08-01T05:20:22.307Z,21.74
2022-08-01T05:22:48.849Z,21.71
2022-08-01T05:25:20.144Z,21.60
2022-08-01T05:27:47.987Z,21.66
2022-08-01T05:30:17.638Z,21.78
2022-08-01T05:32:44.142Z,21.73
2022-08-01T05:35:10.763Z,21.82
2022-08-01T05:37:37.183Z,21.84
2022-08-01T05:40:04.626Z,21.98
2022-08-01T05:42:31.131Z,21.80
2022-08-01T05:44:57.594Z,21.48
2022-08-01T05:47:24.325Z,21.70
2022-08-01T05:49:50.814Z,21.69
2022-08-01T05:52:17.496Z,21.34
2022-08-01T05:54:43.954Z,21.53
2022-08-01T05:57:11.164Z,21.61
2022-08-01T05:59:39.082Z,21.47
2022-08-01T06:02:05.902Z,21.34
2022-08-01T06:04:32.698Z,21.46
2022-08-01T06:06:59.385Z,21.49
2022-08-01T06:09:25.882Z,21.57
2022-08-01T06:11:52.363Z,21.49
2022-08-01T06:14:18.853Z,21.78
2022-08-01T06:16:45.345Z,21.78
2022-08-01T06:19:11.986Z,21.87
2022-08-01T06:21:38.501Z,21.83
2022-08-01T06:24:05.516Z,21.52
2022-08-01T06:26:32.306Z,21.09
2022-08-01T06:28:58.891Z,21.32
2022-08-01T06:31:25.345Z,21.04
2022-08-01T06:33:51.773Z,20.95
2022-08-01T06:36:18.236Z,21.04
2022-08-01T06:38:44.669Z,20.86
2022-08-01T06:41:11.103Z,21.27
2022-08-01T06:43:37.534Z,21.41
2022-08-01T06:46:03.964Z,21.35
2022-08-01T06:48:30.413Z,21.14
2022-08-01T06:51:09.044Z,21.16
2022-08-01T06:53:36.927Z,21.09
2022-08-01T06:56:03.864Z,21.02
2022-08-01T06:58:30.885Z,21.22
2022-08-01T07:00:58.625Z,21.53
2022-08-01T07:03:26.403Z,21.72
2022-08-01T07:05:54.348Z,21.43
2022-08-01T07:08:22.057Z,21.50
2022-08-01T07:10:48.515Z,21.56
2022-08-01T07:13:18.806Z,21.46
2022-08-01T07:15:45.246Z,21.49
2022-08-01T07:18:11.676Z,21.75
2022-08-01T07:20:51.888Z,21.69
2022-08-01T07:23:19.454Z,21.64
2022-08-01T07:25:52.771Z,21.60
2022-08-01T07:28:19.850Z,21.87
2022-08-01T07:30:46.533Z,21.27
2022-08-01T07:33:13.485Z,21.57
2022-08-01T07:35:41.192Z,21.79
2022-08-01T07:38:12.561Z,21.52
2022-08-01T07:40:39.305Z,21.93
2022-08-01T07:43:05.800Z,21.92
2022-08-01T07:45:32.711Z,21.92
2022-08-01T07:48:04.187Z,21.66
2022-08-01T07:50:35.593Z,21.93
2022-08-01T07:53:02.065Z,21.43
2022-08-01T07:55:28.539Z,21.49
2022-08-01T07:57:55.018Z,21.51
2022-08-01T08:00:21.680Z,21.34
2022-08-01T08:02:48.204Z,21.71
2022-08-01T08:05:15.219Z,21.40
2022-08-01T08:07:41.677Z,21.76
2022-08-01T08:10:08.723Z,21.52
2022-08-01T08:12:35.184Z,21.51
2022-08-01T08:15:02.272Z,21.53
2022-08-01T08:17:28.845Z,21.55
2022-08-01T08:20:03.698Z,21.98
2022-08-01T08:22:33.131Z,22.73
2022-08-01T08:25:00.927Z,23.23
2022-08-01T08:27:27.802Z,23.01
2022-08-01T08:29:54.268Z,23.33
2022-08-01T08:32:21.898Z,23.45
2022-08-01T08:34:48.473Z,23.75
2022-08-01T08:37:16.307Z,23.58
2022-08-01T08:39:43.037Z,23.66
2022-08-01T08:42:10.811Z,23.22
2022-08-01T08:44:37.359Z,23.34
2022-08-01T08:47:06.260Z,23.55
2022-08-01T08:49:36.634Z,23.73
2022-08-01T08:52:04.937Z,23.18
2022-08-01T08:54:32.375Z,22.90
2022-08-01T08:57:00.604Z,23.64
2022-08-01T08:59:29.218Z,24.13
2022-08-01T09:01:56.668Z,24.15
2022-08-01T09:04:25.819Z,23.98
2022-08-01T09:06:54.966Z,24.30
2022-08-01T09:09:21.473Z,24.63
2022-08-01T09:11:56.935Z,24.71
2022-08-01T09:14:26.414Z,23.99
2022-08-01T09:17:12.053Z,23.37
2022-08-01T09:19:41.905Z,23.96
2022-08-01T09:22:19.182Z,24.49
2022-08-01T09:25:08.341Z,24.17
2022-08-01T09:27:35.579Z,24.17
2022-08-01T09:30:12.265Z,24.59
2022-08-01T09:32:56.028Z,24.92
2022-08-01T09:35:36.332Z,24.40
2022-08-01T09:38:13.262Z,24.35
2022-08-01T09:40:51.699Z,24.47
2022-08-01T09:43:19.540Z,23.90
2022-08-01T09:45:50.465Z,24.26
2022-08-01T09:48:19.885Z,23.97
2022-08-01T09:50:52.077Z,24.31
2022-08-01T09:53:29.746Z,24.36
2022-08-01T09:56:09.584Z,23.72
2022-08-01T09:59:00.067Z,23.96
2022-08-01T10:01:36.555Z,24.13
2022-08-01T10:04:10.957Z,24.20
2022-08-01T10:06:39.229Z,25.02
2022-08-01T10:09:05.956Z,25.04
2022-08-01T10:11:36.419Z,24.70
2022-08-01T10:14:03.593Z,23.87
2022-08-01T10:16:31.579Z,23.64
2022-08-01T10:18:58.017Z,24.35
2022-08-01T10:21:57.344Z,25.13
2022-08-01T10:24:13.708Z,25.66
2022-08-01T10:26:40.918Z,24.99
2022-08-01T10:29:46.838Z,25.45
2022-08-01T10:31:55.201Z,25.31
2022-08-01T10:34:27.517Z,25.27
2022-08-01T10:36:55.869Z,25.39
2022-08-01T10:39:23.571Z,25.60
2022-08-01T10:41:50.806Z,25.83
2022-08-01T10:44:18.365Z,25.16
2022-08-01T10:46:48.193Z,24.31
2022-08-01T10:49:16.787Z,24.03
2022-08-01T10:51:52.547Z,24.20
2022-08-01T10:54:25.793Z,24.96
2022-08-01T10:56:52.750Z,25.51
2022-08-01T10:59:49.070Z,26.19
2022-08-01T11:02:27.688Z,25.94
2022-08-01T11:05:02.793Z,25.42
2022-08-01T11:07:45.857Z,25.11
2022-08-01T11:10:30.580Z,25.12
2022-08-01T11:12:57.147Z,25.33
2022-08-01T11:15:29.127Z,25.74
2022-08-01T11:17:58.130Z,25.83
2022-08-01T11:20:31.363Z,25.79
2022-08-01T11:23:02.257Z,25.81
2022-08-01T11:26:06.817Z,26.63
2022-08-01T11:28:33.248Z,26.79
2022-08-01T11:31:10.810Z,26.09
2022-08-01T11:33:41.192Z,26.02
2022-08-01T11:36:14.744Z,25.81
2022-08-01T11:38:44.188Z,25.44
2022-08-01T11:41:15.134Z,25.89
2022-08-01T11:43:56.717Z,26.29
2022-08-01T11:46:51.307Z,26.66
2022-08-01T11:49:23.894Z,26.83
2022-08-01T11:51:59.465Z,26.91
2022-08-01T11:54:35.179Z,26.97
2022-08-01T11:57:08.385Z,27.40
2022-08-01T12:00:02.342Z,27.28
2022-08-01T12:02:35.427Z,27.64
2022-08-01T12:05:05.097Z,27.26
2022-08-01T12:07:33.275Z,27.15
2022-08-01T12:10:10.158Z,27.22
2022-08-01T12:12:37.862Z,27.63
2022-08-01T12:15:09.901Z,26.41
2022-08-01T12:17:43.629Z,26.28
2022-08-01T12:20:23.885Z,26.80
2022-08-01T12:23:01.063Z,26.44
2022-08-01T12:25:28.425Z,26.49
2022-08-01T12:27:56.754Z,26.57
2022-08-01T12:30:24.967Z,26.50
2022-08-01T12:32:53.235Z,26.63
2022-08-01T12:35:24.539Z,25.55
2022-08-01T12:38:03.385Z,25.99
2022-08-01T12:40:32.903Z,25.71
2022-08-01T12:43:03.105Z,26.16
2022-08-01T12:45:38.526Z,26.35
2022-08-01T12:48:09.002Z,26.81
2022-08-01T12:50:38.491Z,26.77
2022-08-01T12:53:05.067Z,26.87
2022-08-01T12:55:34.067Z,27.09
2022-08-01T12:58:13.959Z,26.72
2022-08-01T13:00:45.332Z,26.33
2022-08-01T13:03:11.971Z,25.46
2022-08-01T13:05:52.896Z,25.83
2022-08-01T13:08:32.677Z,26.06
2022-08-01T13:11:10.667Z,26.36
2022-08-01T13:13:40.890Z,26.63
2022-08-01T13:16:12.153Z,25.76
2022-08-01T13:18:49.697Z,25.76
2022-08-01T13:21:16.992Z,25.84
2022-08-01T13:24:11.674Z,26.15
2022-08-01T13:26:52.506Z,26.77
2022-08-01T13:29:21.675Z,25.71
2022-08-01T13:31:48.846Z,25.68
2022-08-01T13:34:16.014Z,24.98
2022-08-01T13:36:48.839Z,24.61
2022-08-01T13:39:34.654Z,24.71
2022-08-01T13:42:01.091Z,24.69
2022-08-01T13:44:27.539Z,25.01
2022-08-01T13:46:54.080Z,25.53
2022-08-01T13:49:21.454Z,26.18
2022-08-01T13:51:51.476Z,26.09
2022-08-01T13:54:18.760Z,26.10
2022-08-01T13:56:45.279Z,26.12
2022-08-01T13:59:11.732Z,26.45
2022-08-01T14:01:38.255Z,26.69
2022-08-01T14:04:05.214Z,25.85
2022-08-01T14:06:32.799Z,26.12
2022-08-01T14:08:59.288Z,26.05
2022-08-01T14:11:30.370Z,25.14
2022-08-01T14:14:03.402Z,24.75
2022-08-01T14:16:30.838Z,24.54
2022-08-01T14:18:57.309Z,24.63
2022-08-01T14:21:23.743Z,25.46
2022-08-01T14:23:50.177Z,26.10
2022-08-01T14:26:16.636Z,26.33
2022-08-01T14:28:43.119Z,26.20
2022-08-01T14:31:09.648Z,26.43
2022-08-01T14:33:37.326Z,25.35
2022-08-01T14:36:29.131Z,26.03
2022-08-01T14:38:51.902Z,25.32
2022-08-01T14:41:18.353Z,26.22
2022-08-01T14:43:44.797Z,26.59
2022-08-01T14:46:13.238Z,26.06
2022-08-01T14:48:39.771Z,26.09
2022-08-01T14:51:08.126Z,25.84
2022-08-01T14:53:36.157Z,26.29
2022-08-01T14:56:04.222Z,26.84
2022-08-01T14:58:30.647Z,26.54
2022-08-01T15:00:59.119Z,25.32
2022-08-01T15:03:25.800Z,25.55
2022-08-01T15:05:52.310Z,25.07
2022-08-01T15:08:18.762Z,25.07
2022-08-01T15:10:45.173Z,24.49
2022-08-01T15:13:11.611Z,24.33
2022-08-01T15:15:38.058Z,24.43
2022-08-01T15:18:04.764Z,25.43
2022-08-01T15:20:31.284Z,25.43
2022-08-01T15:22:57.770Z,25.39
2022-08-01T15:25:24.359Z,25.83
2022-08-01T15:27:51.180Z,26.53
2022-08-01T15:30:23.583Z,27.39
2022-08-01T15:32:54.081Z,27.73
2022-08-01T15:35:20.637Z,26.04
2022-08-01T15:37:48.244Z,25.57
2022-08-01T15:40:14.704Z,26.22
2022-08-01T15:42:41.168Z,26.74
2022-08-01T15:45:10.561Z,27.02
2022-08-01T15:47:39.895Z,26.81
2022-08-01T15:50:07.891Z,25.94
2022-08-01T15:52:34.531Z,25.09
2022-08-01T15:55:00.963Z,25.24
2022-08-01T15:57:27.462Z,25.32
2022-08-01T15:59:53.919Z,25.87
2022-08-01T16:02:20.537Z,25.48
2022-08-01T16:04:47.039Z,24.59
2022-08-01T16:07:13.557Z,23.98
2022-08-01T16:09:40.076Z,23.99
2022-08-01T16:12:07.132Z,24.12
2022-08-01T16:14:33.755Z,24.17
2022-08-01T16:17:00.280Z,24.41
2022-08-01T16:19:26.757Z,24.90
2022-08-01T16:21:53.328Z,25.60
2022-08-01T16:24:19.906Z,26.03
2022-08-01T16:26:46.447Z,25.86
2022-08-01T16:29:12.965Z,25.18
2022-08-01T16:31:57.818Z,24.54
2022-08-01T16:34:25.851Z,24.12
2022-08-01T16:36:53.358Z,24.49
2022-08-01T16:39:23.289Z,24.60
2022-08-01T16:41:50.434Z,24.54
2022-08-01T16:44:33.360Z,24.37
2022-08-01T16:47:02.859Z,24.38
2022-08-01T16:49:29.404Z,24.52
2022-08-01T16:51:55.917Z,24.66
2022-08-01T16:54:25.429Z,24.21
2022-08-01T16:56:53.005Z,23.96
2022-08-01T16:59:19.593Z,23.72
2022-08-01T17:02:00.542Z,23.44
2022-08-01T17:04:29.485Z,23.12
2022-08-01T17:06:55.970Z,22.95
2022-08-01T17:09:22.427Z,23.13
2022-08-01T17:11:49.188Z,22.89
2022-08-01T17:14:15.828Z,23.35
2022-08-01T17:16:42.520Z,22.93
2022-08-01T17:19:09.073Z,22.93
2022-08-01T17:21:37.879Z,22.62
2022-08-01T17:24:06.371Z,23.02
2022-08-01T17:26:32.860Z,22.80
2022-08-01T17:28:59.373Z,22.79
2022-08-01T17:31:25.870Z,22.71
2022-08-01T17:33:54.953Z,22.39
2022-08-01T17:36:21.703Z,22.44
2022-08-01T17:38:48.236Z,22.26
2022-08-01T17:41:14.796Z,21.99
2022-08-01T17:43:41.298Z,21.81
2022-08-01T17:46:08.296Z,22.19
2022-08-01T17:48:34.779Z,22.05
2022-08-01T17:51:01.271Z,21.85
2022-08-01T17:53:27.788Z,22.16
2022-08-01T17:55:57.934Z,22.21
2022-08-01T17:58:49.019Z,22.20
2022-08-01T18:01:13.274Z,22.59
2022-08-01T18:03:41.088Z,22.42
2022-08-01T18:06:08.652Z,22.02
2022-08-01T18:08:35.453Z,21.74
2022-08-01T18:11:02.041Z,21.75
2022-08-01T18:13:30.000Z,21.46
2022-08-01T18:15:57.113Z,21.40
2022-08-01T18:18:33.416Z,21.43
2022-08-01T18:21:01.700Z,21.19
2022-08-01T18:23:28.380Z,21.34
2022-08-01T18:25:54.841Z,21.56
2022-08-01T18:28:31.301Z,21.38
2022-08-01T18:31:00.844Z,21.27
2022-08-01T18:33:27.566Z,21.16
2022-08-01T18:35:54.416Z,21.40
2022-08-01T18:38:24.031Z,21.43
2022-08-01T18:40:52.575Z,22.19
2022-08-01T18:43:19.107Z,22.51
2022-08-01T18:45:45.642Z,22.66
2022-08-01T18:48:12.234Z,22.41
2022-08-01T18:50:39.744Z,22.10
2022-08-01T18:53:06.802Z,21.86
2022-08-01T18:55:33.387Z,21.82
2022-08-01T18:57:59.874Z,21.52
2022-08-01T19:00:26.325Z,21.32
2022-08-01T19:02:53.172Z,20.89
2022-08-01T19:05:19.795Z,20.51
2022-08-01T19:08:05.879Z,20.46
2022-08-01T19:10:33.596Z,20.48
2022-08-01T19:13:00.940Z,20.34
2022-08-01T19:15:27.512Z,20.41
2022-08-01T19:17:53.938Z,20.52
2022-08-01T19:20:20.393Z,20.50
2022-08-01T19:22:47.324Z,20.19
2022-08-01T19:25:16.974Z,20.24
2022-08-01T19:27:46.800Z,20.22
2022-08-01T19:30:14.384Z,20.09
2022-08-01T19:32:43.543Z,20.06
2022-08-01T19:35:12.235Z,19.94
2022-08-01T19:37:44.078Z,19.92
2022-08-01T19:40:11.177Z,19.74
2022-08-01T19:42:54.628Z,19.76
2022-08-01T19:45:21.280Z,19.64
2022-08-01T19:47:51.911Z,19.68
2022-08-01T19:50:25.373Z,19.84
2022-08-01T19:52:52.039Z,19.49
2022-08-01T19:55:18.905Z,19.56
2022-08-01T19:57:59.396Z,19.58
2022-08-01T20:00:36.809Z,19.61
2022-08-01T20:03:03.833Z,19.58
2022-08-01T20:05:30.726Z,19.53
2022-08-01T20:07:57.289Z,19.73
2022-08-01T20:10:23.791Z,19.67
2022-08-01T20:12:50.279Z,19.67
2022-08-01T20:15:16.790Z,19.64
2022-08-01T20:17:43.274Z,19.54
2022-08-01T20:20:10.882Z,19.61
2022-08-01T20:22:39.510Z,19.55
2022-08-01T20:25:06.749Z,19.45
2022-08-01T20:27:33.451Z,19.41
2022-08-01T20:30:00.909Z,19.50
2022-08-01T20:32:33.581Z,19.55
2022-08-01T20:35:01.241Z,19.52
2022-08-01T20:38:03.849Z,19.44
2022-08-01T20:40:14.879Z,19.57
2022-08-01T20:42:41.446Z,19.38
2022-08-01T20:45:08.306Z,19.35
2022-08-01T20:47:39.385Z,19.38
2022-08-01T20:50:27.670Z,19.31
2022-08-01T20:53:11.313Z,19.29
2022-08-01T20:55:45.097Z,19.37
2022-08-01T20:58:29.974Z,19.29
2022-08-01T21:00:57.114Z,19.28
2022-08-01T21:03:27.003Z,19.20
2022-08-01T21:06:02.099Z,19.26
2022-08-01T21:08:35.905Z,19.22
2022-08-01T21:11:03.410Z,19.17
2022-08-01T21:13:43.648Z,19.18
2022-08-01T21:16:24.496Z,19.06
2022-08-01T21:21:51.134Z,19.02
2022-08-01T21:24:19.102Z,18.81
2022-08-01T21:26:46.485Z,18.73
2022-08-01T21:29:14.357Z,18.57
2022-08-01T21:31:41.648Z,18.56
2022-08-01T21:34:08.859Z,18.57
2022-08-01T21:36:35.939Z,18.42
2022-08-01T21:39:05.282Z,18.36
2022-08-01T21:42:04.918Z,18.29
2022-08-01T21:44:18.850Z,18.15
2022-08-01T21:46:48.121Z,18.07
2022-08-01T21:49:14.681Z,18.04
2022-08-01T21:51:51.970Z,17.99
2022-08-01T21:54:21.613Z,17.87
2022-08-01T21:57:06.617Z,17.65
2022-08-01T21:59:47.045Z,17.53
2022-08-01T22:02:19.488Z,17.44
2022-08-01T22:04:53.114Z,17.36
2022-08-01T22:07:20.665Z,17.41
2022-08-01T22:09:50.980Z,17.33
2022-08-01T22:12:18.833Z,17.30
2022-08-01T22:14:49.751Z,17.30
2022-08-01T22:17:24.036Z,17.26
2022-08-01T22:19:54.941Z,17.22
2022-08-01T22:22:44.444Z,17.21
2022-08-01T22:25:09.271Z,17.20
2022-08-01T22:28:03.221Z,17.08
2022-08-01T22:30:28.539Z,17.14
2022-08-01T22:33:07.391Z,17.00
2022-08-01T22:35:43.290Z,17.02
2022-08-01T22:38:10.308Z,16.97
2022-08-01T22:40:40.511Z,16.95
2022-08-01T22:43:18.169Z,16.92
2022-08-01T22:45:56.576Z,16.91
2022-08-01T22:48:26.445Z,17.03
2022-08-01T22:51:07.237Z,17.03
2022-08-01T22:54:04.576Z,17.01
2022-08-01T22:56:38.199Z,16.94
2022-08-01T22:59:12.419Z,16.92
2022-08-01T23:01:41.802Z,16.92
2022-08-01T23:04:35.076Z,16.91
2022-08-01T23:07:04.982Z,16.91
2022-08-01T23:09:39.162Z,16.90
2022-08-01T23:12:21.625Z,16.87
2022-08-01T23:14:48.103Z,16.77
2022-08-01T23:17:26.424Z,16.75
2022-08-01T23:20:00.448Z,16.67
2022-08-01T23:22:32.235Z,16.75
2022-08-01T23:25:04.320Z,16.54
2022-08-01T23:27:54.285Z,16.58
2022-08-01T23:30:25.572Z,16.57
2022-08-01T23:32:52.057Z,16.55
2022-08-01T23:35:18.649Z,16.50
2022-08-01T23:37:45.145Z,16.44
2022-08-01T23:40:12.231Z,16.47
2022-08-01T23:42:38.860Z,16.51
2022-08-01T23:45:06.849Z,16.54
2022-08-01T23:47:33.613Z,16.63
2022-08-01T23:50:00.235Z,16.60
2022-08-01T23:52:32.093Z,16.65
2022-08-01T23:54:59.861Z,16.53
2022-08-01T23:57:32.715Z,16.44
